2018.26W
强热带风暴
强热带风暴
  • 注册日期2019-02-02
  • 最后登录2019-06-17
  • 粉丝14
  • 关注3
  • 发帖数537
  • 来自
阅读:1136回复:10

[2018]孟加拉湾极强气旋风暴“法尼”(BOB 02/01B.Fani)云图实况专帖

楼主#
更多 发布于:2019-05-02 23:12
“法尼”(BOB 02/01B.Fani)作为2019年首个孟加拉湾自产热带气旋,强势爆发,并有可能冲击C5、影响我国西南部边境地区,特此开帖!欢迎大家留存珍贵的资料
孟加拉湾热带气旋“法尼”(BOB 02/01B.Fani)追击帖:http://bbs.typhoon.org.cn/read.php?tid=79124&fid=79
[327于2019-05-03 12:00编辑了帖子]
喜欢0 评分0
327
327
论坛版主-副热带高压
论坛版主-副热带高压
  • 注册日期2013-12-31
  • 最后登录2019-06-17
  • 粉丝155
  • 关注80
  • 发帖数5712
  • 来自
1楼#
发布于:2019-05-03 12:00
登陆

图片:vis_lalo-animated.gif


图片:bd_lalo-animated.gif

2条评分, 威望 +4
回复(0) 喜欢(0)     评分(2)
2018.26W
强热带风暴
强热带风暴
  • 注册日期2019-02-02
  • 最后登录2019-06-17
  • 粉丝14
  • 关注3
  • 发帖数537
  • 来自
2楼#
发布于:2019-05-03 13:32

图片:20190503.0450.himawari-8.vis.01B.FANI.130kts.923mb.19N.85.5E.100pc.jpg

图片

1条评分, 威望 +5
回复(0) 喜欢(0)     评分(1)
327
327
论坛版主-副热带高压
论坛版主-副热带高压
  • 注册日期2013-12-31
  • 最后登录2019-06-17
  • 粉丝155
  • 关注80
  • 发帖数5712
  • 来自
3楼#
发布于:2019-05-03 15:00
瀵逛笉璧!鎮ㄦ病鏈夌櫥褰,璇峰厛鐧诲綍璁哄潧.

Biju Patnaik International Airport录得最大风速60节、最大阵风75节、最低气压951百帕
VEBS 031000Z 23040G50KT 0800 +RA SCT008 SCT016 FEW030CB OVC080 24/24 Q0991 NOSIG
VEBS 030900Z 23050G60KT 0300 +RA SCT008 SCT016 FEW030CB OVC080 24/24 Q0988 NOSIG
VEBS 030830Z 23060G70KT 0200 +RA SCT008 SCT016 FEW030CB OVC080 24/24 Q0985 NOSIG
VEBS 030730Z 23060G75KT 0300 +RA SCT008 SCT016 FEW030CB OVC080 25/25 Q0974 NOSIG
VEBS 030700Z 23045KT 0800 +RA SCT008 SCT016 FEW030CB OVC080 25/25 Q0960 NOSIG
VEBS 030630Z 30022KT 1200 RA SCT008 SCT016 FEW030CB OVC080 25/25 Q0951 BECMG 1500 TSRA
VEBS 030600Z 07050G70KT 0800 +RA SCT008 SCT016 FEW030CB OVC080 25/25 Q0956 NOSIG
VEBS 030530Z 07050G60KT 0800 +RA SCT008 SCT016 FEW030CB OVC080 25/25 Q0966 NOSIG
VEBS 030500Z 07060G70KT 0800 +RA SCT008 SCT016 FEW030CB OVC080 25/25 Q0977 NOSIG
VEBS 030430Z 07035G45KT 0800 +RA SCT008 SCT016 FEW030CB OVC080 25/25 Q0982 NOSIG
VEBS 030400Z 04030G40KT 1200 RA SCT008 SCT016 FEW030CB OVC080 25/25 Q0987 TEMPO 0800 +TSRA
VEBS 030330Z 03030G40KT 1200 RA SCT008 SCT016 FEW030CB OVC080 25/25 Q0990 TEMPO 0800 +TSRA
VEBS 030300Z 04020G30KT 1500 RA SCT010 SCT016 FEW030CB OVC080 25/25 Q0992 TEMPO 0800 +TSRA
VEBS 030230Z 02010G29KT 2000 -RA SCT010 SCT016 FEW030CB OVC080 25/25 Q0993 NOSIG
VEBS 030200Z 02009G22KT 2500 -RA SCT010 SCT016 FEW030CB OVC080 25/25 Q0993 TEMPO 1500 RA
VEBS 030130Z 02010KT 2500 -RA SCT010 SCT016 FEW030CB OVC080 25/25 Q0994 TEMPO 1500 RA
VEBS 030100Z 02014KT 2500 -RA SCT010 SCT016 FEW030CB OVC080 25/24 Q0994 TEMPO 1500 RA
VEBS 030030Z 08009KT 2500 -RA SCT010 SCT016 FEW030CB OVC080 25/25 Q0994 NOSIG
VEBS 030000Z 09009KT 2500 -RA BKN016 FEW030CB OVC080 25/24 Q0995 NOSIG
VEBS 022330Z 10007KT 2500 -RA BKN016 FEW030CB OVC080 25/25 Q0995 NOSIG
VEBS 022300Z 08009KT 2500 -RA BKN016 FEW030CB OVC080 25/25 Q0996 NOSIG
VEBS 022230Z 09007KT 2500 -RA BKN016 FEW030CB OVC080 26/26 Q0996 NOSIG
VEBS 022200Z 06009KT 2500 -RA BKN016 FEW030CB OVC080 26/26 Q0996 NOSIG
VEBS 022130Z 05007KT 2500 -RA BKN016 FEW030CB OVC080 26/26 Q0997 NOSIG
VEBS 022100Z 04005KT 2500 -RA BKN016 FEW030CB OVC080 25/25 Q0998 NOSIG
VEBS 022030Z 05003KT 2500 -RA BKN016 FEW030CB OVC080 25/25 Q0993 NOSIG
VEBS 022000Z 05005KT 3000 -RA BKN016 FEW030CB OVC080 25/25 Q0999 TEMPO 1500 RA
VEBS 021930Z 01003KT 3000 -RA BKN016 FEW030CB OVC080 25/25 Q0999 NOSIG
VEBS 021900Z 09002KT 3000 -RA BKN016 FEW030CB OVC080 25/25 Q1000 NOSIG

图片:sfcplot_01B_2019050306.png

[327于2019-05-03 23:00编辑了帖子]
2条评分, 贡献值 +3
回复(0) 喜欢(0)     评分(2)
2018.26W
强热带风暴
强热带风暴
  • 注册日期2019-02-02
  • 最后登录2019-06-17
  • 粉丝14
  • 关注3
  • 发帖数537
  • 来自
4楼#
发布于:2019-05-04 08:25
新华社新德里5月3日电 热带气旋“法尼”3日在印度东部奥迪沙邦登陆,造成3人死亡,并对当地设施造成严重破坏。

“法尼”当地时间3日上午在奥迪沙邦普里地区登陆。据印度国家气象局测定,当地时间10时,气旋中心附近最大风力达每小时180公里左右,下午逐步减弱至每小时150公里左右。

印度总理莫迪当天发表声明说,国家将积极组织救灾抢险,已将超过100亿卢比(约合1.43亿美元)的救援资金发放给了相关地方政府。

据悉,“法尼”登陆前奥迪沙邦已将超过100万民众疏散至较为安全的地带,附近学校停课,机场也取消部分航班。

据印度媒体报道,“法尼”是1999年以来奥迪沙邦遭遇的最强热带气旋,目前“法尼”威力正在逐渐减弱,预计将于晚间在西孟加拉邦附近登陆,并可能继续向北对孟加拉国造成影响。
回复(0) 喜欢(0)     评分
327
327
论坛版主-副热带高压
论坛版主-副热带高压
  • 注册日期2013-12-31
  • 最后登录2019-06-17
  • 粉丝155
  • 关注80
  • 发帖数5712
  • 来自
5楼#
发布于:2019-05-04 12:00
瀵逛笉璧!鎮ㄦ病鏈夌櫥褰,璇峰厛鐧诲綍璁哄潧.

加尔各答国际机场录得最低气压986百帕
VECC 040300Z 26013KT 2800 -RA FEW010 SCT015 OVC090 24/23 Q1002 BECMG 3000 -RA
VECC 040200Z 27013KT 2500 -RA SCT010 SCT015 OVC090 24/23 Q0999 NOSIG
VECC 040130Z 28012KT 2500 -RA FEW010 BKN015 FEW030CB OVC090 24/23 Q0998 NOSIG
VECC 040100Z 28013KT 2000 -RA FEW010 BKN015 FEW025CB OVC090 24/23 Q0997 NOSIG
VECC 040030Z 27013KT 2000 -RA FEW010 BKN015 FEW025CB OVC090 24/23 Q0995 NOSIG
VECC 040000Z 27013KT 2500 -RA FEW010 SCT015 FEW025CB OVC090 24/23 Q0994 NOSIG
VECC 032330Z 28015KT 2500 -RA FEW010 SCT015 FEW025CB OVC090 24/23 Q0993 NOSIG
VECC 032300Z 28011KT 2500 RA FEW010 BKN015 FEW025CB OVC090 24/23 Q0990 NOSIG
VECC 032230Z 27011KT 2500 -RA FEW010 SCT015 FEW025CB OVC090 24/23 Q0988 NOSIG
VECC 032200Z 26007KT 2500 -RA FEW010 SCT015 FEW025CB OVC090 24/23 Q0987 NOSIG
VECC 032130Z 10012KT 2000 RA FEW010 SCT015 FEW025CB OVC090 24/23 Q0986 NOSIG
VECC 032100Z 09015KT 2000 RA FEW010 SCT015 FEW025CB OVC090 25/24 Q0987 NOSIG
VECC 032030Z 09017KT 2200 -RA FEW010 SCT015 FEW030CB OVC090 25/24 Q0989 NOSIG
VECC 032000Z 09017KT 2200 -RA FEW010 SCT015 FEW030CB OVC090 25/24 Q0991 NOSIG
VECC 031930Z 10013KT 2500 -RA FEW010 SCT015 FEW025CB OVC090 25/24 Q0992 TEMPO TL2000 13020G30KT 1500 TSRA
VECC 031900Z 10013KT 2500 -RA FEW010 SCT015 FEW025CB OVC090 25/25 Q0993 TEMPO TL2000 13020G30KT 1500 TSRA
VECC 031830Z 11014KT 2600 -RA FEW010 SCT015 FEW025CB OVC090 25/25 Q0995 TEMPO TL2000 13020G30KT 1500 TSRA
VECC 031800Z 12012KT 2600 -RA FEW010 SCT015 FEW025CB OVC090 25/25 Q0996 TEMPO TL2000 13020G30KT 1500 TSRA
VECC 031730Z 11011KT 2600 -RA FEW010 SCT015 FEW025CB OVC090 25/25 Q0996 TEMPO TL1800 10020G30KT 1500 TSRA
VECC 031700Z 13011KT 2600 -RA FEW010 SCT015 FEW025CB OVC090 26/25 Q0997 TEMPO TL1800 10020G30KT 1500 TSRA
VECC 031630Z 12013KT 1800 RA FEW010 SCT015 FEW025CB OVC090 25/25 Q0998 TEMPO TL1800 10020G30KT 1500 TSRA
VECC 031600Z 07014KT 2500 RA FEW010 SCT015 FEW025CB OVC090 25/25 Q0999 TEMPO TL1800 10020G30KT 1500 TSRA
VECC 031530Z 08013KT 2500 -RA FEW010 SCT015 FEW030CB OVC090 25/25 Q0999 NOSIG
VECC 031500Z 07017KT 2500 -RA FEW010 SCT015 FEW030CB OVC090 25/24 Q1000 NOSIG

图片:sfcplot_01B_2019050321.png



瀵逛笉璧!鎮ㄦ病鏈夌櫥褰,璇峰厛鐧诲綍璁哄潧.

吉大港国际机场录得最大风速30节
VGEG 040500Z 19020KT 4000 SCT008 FEW030CB OVC090 32/27 Q1006 TEMPO RA
VGEG 040400Z 18030KT 5000 SCT018 FEW030CB OVC090 32/27 Q1005 NOSIG
VGEG 040300Z 18030KT 5000 SCT018 FEW028CB OVC080 32/27 Q1004 TEMPO TS/RA
VGEG 040200Z 180016KT 5000 SCT016 FEW028CB BKN090 29/26 Q1004 TEMPO TSRA

图片:sfcplot_01B_2019050403.png

[327于2019-05-04 20:00编辑了帖子]
1条评分, 贡献值 +3
回复(0) 喜欢(0)     评分(1)
2018.26W
强热带风暴
强热带风暴
  • 注册日期2019-02-02
  • 最后登录2019-06-17
  • 粉丝14
  • 关注3
  • 发帖数537
  • 来自
6楼#
发布于:2019-05-04 14:37
灾区实况
(来源:中国新闻网)

图片:200x133_02b909e553da4c249ff7d0b149dc1d55.jpg

图片:200x133_8dd4c7a4936141e295f294360c9cdf07.jpg

图片:200x133_396deadecee94bd08a2fd47a9354b045.jpg

图片:200x133_714831c95d7e42ef8fd33edd0361bc12.jpg

图片:200x133_9740424463df45c7b418dd14bbbef9da.jpg

图片:200x133_abd5d8159b7a4509a0a04f7ef53454b8.jpg

1条评分, 威望 +3
回复(0) 喜欢(0)     评分(1)
2018.26W
强热带风暴
强热带风暴
  • 注册日期2019-02-02
  • 最后登录2019-06-17
  • 粉丝14
  • 关注3
  • 发帖数537
  • 来自
7楼#
发布于:2019-05-04 16:32
来源:新华社
新华社达卡5月3日电孟加拉国官员3日说,鉴于热带气旋“法尼”即将登陆,该国将把约250万人疏散至安全场所以躲避风暴。
孟加拉国气象部门3日表示,“法尼”可能在3日午夜登陆孟加拉国沿海的库尔纳及周边地区,中心附近最大风力可达每小时200公里。沿海低洼地区可能被海浪淹没,渔船被要求在港口内躲避。
孟加拉国灾害与救援部秘书沙阿·卡迈勒3日说,超过40万人已被安置到当地庇护所,预计沿海受影响地区共将有250万人需要被疏散和安置。孟加拉国海军、海岸警卫队、警察、志愿者组织等正在加紧相关疏散工作。首都达卡等地已设立了疏散安置指挥中心。
据当地电视台报道,当地时间3日下午,孟加拉国沿海地区已是暴风雨天气,在约30个沿海村庄引发洪水。达卡市也连降数场大雨。
“法尼”3日已袭击印度东部,当地100多万人因此被疏散。
北印度洋附近海域每年形成多个热带气旋,其产生的强热带风暴具有较强破坏力。(记者 刘春涛)
回复(0) 喜欢(0)     评分
2018.26W
强热带风暴
强热带风暴
  • 注册日期2019-02-02
  • 最后登录2019-06-17
  • 粉丝14
  • 关注3
  • 发帖数537
  • 来自
8楼#
发布于:2019-05-04 16:58

图片:3ac79f3df8dcd100b29fd51aacae8214b9122fb7.jpg

图片

1条评分, 威望 +5
回复(0) 喜欢(0)     评分(1)
2018.26W
强热带风暴
强热带风暴
  • 注册日期2019-02-02
  • 最后登录2019-06-17
  • 粉丝14
  • 关注3
  • 发帖数537
  • 来自
9楼#
发布于:2019-05-04 21:43
热带气旋“法尼”造成印度12人死亡
新华社新德里5月4日电(记者赵旭)截至4日,袭击印度东海岸的热带气旋“法尼”已造成登陆地点奥迪沙邦12人死亡。多个受灾地区的灾后救援和重建工作目前已逐步展开。

“法尼”当地时间3日上午在奥迪沙邦普里地区登陆,气旋中心附近最大风力达每小时180公里左右。在造成一系列破坏后,“法尼”威力逐渐减弱,并于当天晚间在西孟加拉邦附近登陆并造成较大破坏,包括该邦首府加尔各答在内的多地都受到风暴袭击,不过该地区目前尚未有人员伤亡或财产损失的报告。

印度媒体报道说,随着风暴逐渐消散,受灾地区的灾后救援和重建工作已经展开,当前重点工作是恢复道路交通。奥迪沙邦普里地区是本次受灾最为严重的地区,当地能源基础设施几乎被完全摧毁,电力供应亟待恢复。

当地媒体认为,此次“法尼”来袭并未在受灾地区造成大规模人员伤亡得益于前期的准备工作。自2日开始,奥迪沙邦已将100余万民众疏散至较为安全的地带,学校停课,机场也取消部分航班。

据印度媒体报道,“法尼”是1999年以来印度东部遭遇的最强热带气旋。
回复(0) 喜欢(0)     评分
星夕沙莎
台风
台风
  • 注册日期2013-09-12
  • 最后登录2019-06-16
  • 粉丝81
  • 关注33
  • 发帖数604
  • 来自
10楼#
发布于:2019-05-05 01:33

图片:1fdef67561e6546e000be74ba69743ee.jpg





图片:cyclone-fani-indian-navy-launches-rescue-and-rehabilitation-effort-in-odisha.jpg





图片:04cyclone-fani5.jpg





图片:103096-unncdooiya-1556590267.jpg





图片:bandicam 2019-05-04 16-54-13-795.jpg




图片:puritemple-487839657_6.png




图片:india-weather-fani-cyclone_9a63907a-6e4d-11e9-adf4-e14f82ec3649.jpg

[星夕沙莎于2019-05-05 01:41编辑了帖子]
1条评分, 威望 +10
喜歡氣象,實際上氣象知識也只是知道有關颱風的知識,氣象三句不離颱風。
回复(0) 喜欢(0)     评分(1)
游客

返回顶部